createdAt,value
2017-05-07T00:00:01.577Z,0
2017-05-07T00:01:10.467Z,0
2017-05-07T00:02:19.507Z,0
2017-05-07T00:03:28.400Z,0
2017-05-07T00:04:37.292Z,0
2017-05-07T00:05:46.511Z,0
2017-05-07T00:06:55.415Z,0
2017-05-07T00:08:04.709Z,0
2017-05-07T00:09:13.930Z,0
2017-05-07T00:10:22.819Z,0
2017-05-07T00:11:31.708Z,0
2017-05-07T00:12:41.252Z,0
2017-05-07T00:13:50.303Z,0
2017-05-07T00:14:59.198Z,0
2017-05-07T00:16:08.415Z,0
2017-05-07T00:17:17.306Z,0
2017-05-07T00:18:26.201Z,0
2017-05-07T00:19:35.474Z,0
2017-05-07T00:20:44.721Z,0
2017-05-07T00:21:53.610Z,0
2017-05-07T00:23:02.502Z,0
2017-05-07T00:24:11.727Z,0
2017-05-07T00:25:20.617Z,0
2017-05-07T00:26:29.829Z,0
2017-05-07T00:27:39.049Z,0
2017-05-07T00:28:48.915Z,0
2017-05-07T00:29:57.806Z,0
2017-05-07T00:31:07.321Z,0
2017-05-07T00:32:16.858Z,0
2017-05-07T00:33:25.751Z,0
2017-05-07T00:34:34.968Z,0
2017-05-07T00:35:44.509Z,0
2017-05-07T00:36:54.250Z,0
2017-05-07T00:38:03.827Z,0
2017-05-07T00:39:13.371Z,0
2017-05-07T00:40:22.264Z,0
2017-05-07T00:41:31.514Z,0
2017-05-07T00:42:41.206Z,0
2017-05-07T00:43:50.430Z,0
2017-05-07T00:44:59.653Z,0
2017-05-07T00:46:08.874Z,0
2017-05-07T00:47:18.742Z,0
2017-05-07T00:48:28.607Z,0
2017-05-07T00:49:38.470Z,0
2017-05-07T00:50:47.369Z,0
2017-05-07T00:51:56.588Z,0
2017-05-07T00:53:06.453Z,0
2017-05-07T00:54:16.045Z,0
2017-05-07T00:55:24.938Z,0
2017-05-07T00:56:34.154Z,0
2017-05-07T00:57:43.371Z,0
2017-05-07T00:58:52.594Z,0
2017-05-07T01:00:02.288Z,0
2017-05-07T01:01:11.212Z,0
2017-05-07T01:02:20.428Z,0
2017-05-07T01:03:29.648Z,0
2017-05-07T01:04:38.866Z,0
2017-05-07T01:05:47.881Z,0
2017-05-07T01:06:57.748Z,0
2017-05-07T01:08:06.639Z,0
2017-05-07T01:09:15.536Z,0
2017-05-07T01:10:24.757Z,0
2017-05-07T01:11:34.272Z,0
2017-05-07T01:12:44.148Z,0
2017-05-07T01:13:53.047Z,0
2017-05-07T01:15:02.923Z,0
2017-05-07T01:16:11.816Z,0
2017-05-07T01:17:20.774Z,0
2017-05-07T01:18:30.317Z,0
2017-05-07T01:19:39.532Z,0
2017-05-07T01:20:48.426Z,0
2017-05-07T01:21:57.641Z,0
2017-05-07T01:23:07.161Z,0
2017-05-07T01:24:16.381Z,0
2017-05-07T01:25:25.272Z,0
2017-05-07T01:26:34.163Z,0
2017-05-07T01:27:43.086Z,0
2017-05-07T01:28:52.706Z,0
2017-05-07T01:30:02.253Z,0
2017-05-07T01:31:11.146Z,0
2017-05-07T01:32:20.044Z,0
2017-05-07T01:33:29.294Z,0
2017-05-07T01:34:38.235Z,0
2017-05-07T01:35:47.457Z,0
2017-05-07T01:36:56.356Z,0
2017-05-07T01:38:05.599Z,0
2017-05-07T01:39:14.494Z,0
2017-05-07T01:40:23.542Z,0
2017-05-07T01:41:33.081Z,0
2017-05-07T01:42:41.974Z,0
2017-05-07T01:43:51.519Z,0
2017-05-07T01:45:00.769Z,0
2017-05-07T01:46:10.293Z,0
2017-05-07T01:47:19.186Z,0
2017-05-07T01:48:29.080Z,0
2017-05-07T01:49:38.300Z,0
2017-05-07T01:50:47.189Z,0
2017-05-07T01:51:56.610Z,0
2017-05-07T01:53:05.500Z,0
2017-05-07T01:54:14.401Z,0
2017-05-07T01:55:23.298Z,0
2017-05-07T01:56:32.508Z,0
2017-05-07T01:57:41.975Z,0
2017-05-07T01:58:51.525Z,0
2017-05-07T02:00:00.418Z,0
2017-05-07T02:01:09.962Z,0
2017-05-07T02:02:19.178Z,0
2017-05-07T02:03:28.696Z,0
2017-05-07T02:04:38.237Z,0
2017-05-07T02:05:47.453Z,0
2017-05-07T02:06:56.344Z,0
2017-05-07T02:08:05.245Z,0
2017-05-07T02:09:14.762Z,0
2017-05-07T02:10:23.654Z,0
2017-05-07T02:11:32.875Z,0
2017-05-07T02:12:42.421Z,0
2017-05-07T02:13:51.635Z,0
2017-05-07T02:15:00.905Z,0
2017-05-07T02:16:09.796Z,0
2017-05-07T02:17:19.331Z,0
2017-05-07T02:18:28.873Z,0
2017-05-07T02:19:37.769Z,0
2017-05-07T02:20:46.808Z,0
2017-05-07T02:21:55.707Z,0
2017-05-07T02:23:05.571Z,0
2017-05-07T02:24:14.801Z,0
2017-05-07T02:25:23.691Z,0
2017-05-07T02:26:32.784Z,0
2017-05-07T02:27:42.650Z,0
2017-05-07T02:28:52.192Z,0
2017-05-07T02:30:01.741Z,0
2017-05-07T02:31:11.287Z,0
2017-05-07T02:32:21.231Z,0
2017-05-07T02:33:30.448Z,0
2017-05-07T02:34:39.341Z,0
2017-05-07T02:35:48.239Z,0
2017-05-07T02:36:57.132Z,0
2017-05-07T02:38:06.503Z,0
2017-05-07T02:39:15.725Z,0
2017-05-07T02:40:24.936Z,0
2017-05-07T02:41:33.827Z,0
2017-05-07T02:42:43.046Z,0
2017-05-07T02:43:52.412Z,0
2017-05-07T02:45:02.298Z,0
2017-05-07T02:46:11.185Z,0
2017-05-07T02:47:20.721Z,0
2017-05-07T02:48:29.941Z,0
2017-05-07T02:49:39.304Z,0
2017-05-07T02:50:48.519Z,0
2017-05-07T02:51:57.412Z,0
2017-05-07T02:53:06.299Z,0
2017-05-07T02:54:15.840Z,0
2017-05-07T02:55:25.318Z,0
2017-05-07T02:56:34.531Z,0
2017-05-07T02:57:43.426Z,0
2017-05-07T02:58:52.640Z,0
2017-05-07T03:00:02.507Z,0
2017-05-07T03:01:11.493Z,0
2017-05-07T03:02:20.381Z,0
2017-05-07T03:03:29.922Z,0
2017-05-07T03:04:39.141Z,0
2017-05-07T03:05:48.355Z,4
2017-05-07T03:06:57.622Z,4
2017-05-07T03:08:07.160Z,4
2017-05-07T03:09:16.704Z,0
2017-05-07T03:10:25.924Z,0
2017-05-07T03:11:34.815Z,4
2017-05-07T03:12:44.636Z,4
2017-05-07T03:13:53.526Z,4
2017-05-07T03:15:02.741Z,4
2017-05-07T03:16:11.633Z,8
2017-05-07T03:17:20.527Z,8
2017-05-07T03:18:29.841Z,4
2017-05-07T03:19:38.729Z,8
2017-05-07T03:20:47.622Z,8
2017-05-07T03:21:56.845Z,8
2017-05-07T03:23:06.384Z,12
2017-05-07T03:24:16.170Z,12
2017-05-07T03:25:25.390Z,16
2017-05-07T03:26:34.605Z,20
2017-05-07T03:27:43.828Z,20
2017-05-07T03:28:53.052Z,24
2017-05-07T03:30:02.520Z,28
2017-05-07T03:31:11.743Z,32
2017-05-07T03:32:20.635Z,40
2017-05-07T03:33:29.855Z,44
2017-05-07T03:34:39.074Z,48
2017-05-07T03:35:48.389Z,52
2017-05-07T03:36:57.277Z,60
2017-05-07T03:38:06.818Z,60
2017-05-07T03:39:16.033Z,68
2017-05-07T03:40:25.254Z,76
2017-05-07T03:41:34.520Z,88
2017-05-07T03:42:44.062Z,96
2017-05-07T03:43:53.278Z,104
2017-05-07T03:45:02.851Z,116
2017-05-07T03:46:11.744Z,124
2017-05-07T03:47:20.791Z,132
2017-05-07T03:48:30.333Z,144
2017-05-07T03:49:39.233Z,148
2017-05-07T03:50:48.446Z,160
2017-05-07T03:51:58.310Z,168
2017-05-07T03:53:07.829Z,176
2017-05-07T03:54:16.718Z,180
2017-05-07T03:55:25.962Z,184
2017-05-07T03:56:34.857Z,188
2017-05-07T03:57:44.400Z,200
2017-05-07T03:58:54.089Z,220
2017-05-07T04:00:03.308Z,240
2017-05-07T04:01:12.847Z,256
2017-05-07T04:02:22.057Z,264
2017-05-07T04:03:31.307Z,272
2017-05-07T04:04:41.326Z,288
2017-05-07T04:05:50.543Z,312
2017-05-07T04:06:59.758Z,352
2017-05-07T04:08:08.648Z,396
2017-05-07T04:09:17.873Z,432
2017-05-07T04:10:27.519Z,460
2017-05-07T04:11:37.064Z,476
2017-05-07T04:12:46.612Z,496
2017-05-07T04:13:55.828Z,520
2017-05-07T04:15:05.378Z,556
2017-05-07T04:16:14.694Z,600
2017-05-07T04:17:23.589Z,640
2017-05-07T04:18:33.455Z,668
2017-05-07T04:19:42.357Z,688
2017-05-07T04:20:51.930Z,712
2017-05-07T04:22:00.972Z,728
2017-05-07T04:23:10.187Z,732
2017-05-07T04:24:19.405Z,736
2017-05-07T04:25:28.301Z,736
2017-05-07T04:26:37.520Z,728
2017-05-07T04:27:46.785Z,732
2017-05-07T04:28:56.003Z,764
2017-05-07T04:30:04.891Z,816
2017-05-07T04:31:14.104Z,884
2017-05-07T04:32:23.654Z,936
2017-05-07T04:33:32.742Z,972
2017-05-07T04:34:41.639Z,976
2017-05-07T04:35:50.857Z,968
2017-05-07T04:36:59.747Z,976
2017-05-07T04:38:08.645Z,988
2017-05-07T04:39:18.214Z,1004
2017-05-07T04:40:27.110Z,1012
2017-05-07T04:41:36.653Z,1012
2017-05-07T04:42:45.547Z,1004
2017-05-07T04:43:55.417Z,1012
2017-05-07T04:45:05.115Z,1032
2017-05-07T04:46:14.006Z,1048
2017-05-07T04:47:23.549Z,1060
2017-05-07T04:48:32.779Z,1052
2017-05-07T04:49:41.670Z,1032
2017-05-07T04:50:50.886Z,1024
2017-05-07T04:51:59.783Z,1028
2017-05-07T04:53:09.003Z,1032
2017-05-07T04:54:18.227Z,1048
2017-05-07T04:55:27.447Z,1088
2017-05-07T04:56:37.088Z,1132
2017-05-07T04:57:45.983Z,1164
2017-05-07T04:58:55.532Z,1196
2017-05-07T05:00:04.754Z,1228
2017-05-07T05:01:13.974Z,1260
2017-05-07T05:02:23.289Z,1324
2017-05-07T05:03:32.832Z,1376
2017-05-07T05:04:42.732Z,1380
2017-05-07T05:05:51.630Z,1352
2017-05-07T05:07:01.169Z,1320
2017-05-07T05:08:10.310Z,1308
2017-05-07T05:09:19.202Z,1336
2017-05-07T05:10:28.420Z,1384
2017-05-07T05:11:37.343Z,1440
2017-05-07T05:12:46.567Z,1476
2017-05-07T05:13:55.833Z,1460
2017-05-07T05:15:05.708Z,1400
2017-05-07T05:16:14.601Z,1360
2017-05-07T05:17:23.823Z,1352
2017-05-07T05:18:32.720Z,1380
2017-05-07T05:19:42.092Z,1436
2017-05-07T05:20:50.987Z,1500
2017-05-07T05:21:59.885Z,1540
2017-05-07T05:23:09.752Z,1528
2017-05-07T05:24:18.970Z,1476
2017-05-07T05:25:27.916Z,1408
2017-05-07T05:26:37.142Z,1328
2017-05-07T05:27:46.035Z,1264
2017-05-07T05:28:55.576Z,1220
2017-05-07T05:30:04.794Z,1200
2017-05-07T05:31:14.007Z,1208
2017-05-07T05:32:23.288Z,1208
2017-05-07T05:33:32.831Z,1200
2017-05-07T05:34:42.372Z,1184
2017-05-07T05:35:51.267Z,1180
2017-05-07T05:37:00.534Z,1204
2017-05-07T05:38:09.430Z,1260
2017-05-07T05:39:18.318Z,1320
2017-05-07T05:40:27.216Z,1396
2017-05-07T05:41:36.108Z,1452
2017-05-07T05:42:45.627Z,1496
2017-05-07T05:43:54.524Z,1544
2017-05-07T05:45:03.744Z,1604
2017-05-07T05:46:12.957Z,1660
2017-05-07T05:47:22.174Z,1744
2017-05-07T05:48:31.227Z,1840
2017-05-07T05:49:40.447Z,1900
2017-05-07T05:50:49.339Z,1948
2017-05-07T05:51:58.236Z,1976
2017-05-07T05:53:07.129Z,2024
2017-05-07T05:54:16.073Z,2052
2017-05-07T05:55:25.291Z,2068
2017-05-07T05:56:34.181Z,2084
2017-05-07T05:57:43.397Z,2100
2017-05-07T05:58:52.937Z,2128
2017-05-07T06:00:02.644Z,2156
2017-05-07T06:01:11.540Z,2200
2017-05-07T06:02:20.753Z,2224
2017-05-07T06:03:29.993Z,2288
2017-05-07T06:04:39.867Z,2360
2017-05-07T06:05:49.236Z,2428
2017-05-07T06:06:58.122Z,2532
2017-05-07T06:08:07.340Z,2580
2017-05-07T06:09:17.217Z,2608
2017-05-07T06:10:26.438Z,2756
2017-05-07T06:11:35.807Z,2868
2017-05-07T06:12:44.708Z,2960
2017-05-07T06:13:53.933Z,3084
2017-05-07T06:15:03.150Z,3232
2017-05-07T06:16:12.044Z,3392
2017-05-07T06:17:21.095Z,3588
2017-05-07T06:18:30.375Z,3752
2017-05-07T06:19:39.599Z,3964
2017-05-07T06:20:48.493Z,4152
2017-05-07T06:21:57.391Z,4392
2017-05-07T06:23:06.713Z,4620
2017-05-07T06:24:15.615Z,4828
2017-05-07T06:25:24.512Z,4980
2017-05-07T06:26:33.729Z,5080
2017-05-07T06:27:42.943Z,5212
2017-05-07T06:28:52.861Z,5376
2017-05-07T06:30:02.399Z,5412
2017-05-07T06:31:12.272Z,5392
2017-05-07T06:32:21.491Z,5452
2017-05-07T06:33:30.738Z,5720
2017-05-07T06:34:39.785Z,5904
2017-05-07T06:35:48.677Z,6068
2017-05-07T06:36:57.938Z,6208
2017-05-07T06:38:07.160Z,6152
2017-05-07T06:39:16.055Z,6136
2017-05-07T06:40:25.701Z,6256
2017-05-07T06:41:34.921Z,6492
2017-05-07T06:42:43.814Z,6832
2017-05-07T06:43:52.716Z,7144
2017-05-07T06:45:01.616Z,7360
2017-05-07T06:46:10.834Z,7604
2017-05-07T06:47:19.731Z,7892
2017-05-07T06:48:28.657Z,8144
2017-05-07T06:49:37.877Z,8460
2017-05-07T06:50:46.796Z,8776
2017-05-07T06:51:55.892Z,9040
2017-05-07T06:53:05.108Z,9096
2017-05-07T06:54:14.327Z,9052
2017-05-07T06:55:23.894Z,9036
2017-05-07T06:56:32.792Z,8968
2017-05-07T06:57:42.110Z,8988
2017-05-07T06:58:51.008Z,8892
2017-05-07T06:59:59.901Z,8796
2017-05-07T07:01:09.448Z,8596
2017-05-07T07:02:18.662Z,8408
2017-05-07T07:03:28.039Z,8180
2017-05-07T07:04:36.931Z,8048
2017-05-07T07:05:45.830Z,8008
2017-05-07T07:06:55.054Z,7908
2017-05-07T07:08:04.600Z,7872
2017-05-07T07:09:13.973Z,7864
2017-05-07T07:10:23.202Z,7784
2017-05-07T07:11:32.108Z,7600
2017-05-07T07:12:41.004Z,7440
2017-05-07T07:13:50.228Z,7292
2017-05-07T07:14:59.591Z,7172
2017-05-07T07:16:08.499Z,7092
2017-05-07T07:17:17.389Z,7080
2017-05-07T07:18:26.285Z,7156
2017-05-07T07:19:35.833Z,7288
2017-05-07T07:20:45.052Z,7412
2017-05-07T07:21:53.947Z,7460
2017-05-07T07:23:02.860Z,7424
2017-05-07T07:24:11.760Z,7296
2017-05-07T07:25:21.307Z,7168
2017-05-07T07:26:30.950Z,7064
2017-05-07T07:27:39.844Z,7024
2017-05-07T07:28:48.744Z,7048
2017-05-07T07:29:57.965Z,7108
2017-05-07T07:31:07.181Z,7224
2017-05-07T07:32:16.224Z,7396
2017-05-07T07:33:25.770Z,7616
2017-05-07T07:34:34.664Z,7820
2017-05-07T07:35:43.592Z,7976
2017-05-07T07:36:52.488Z,8124
2017-05-07T07:38:02.177Z,8100
2017-05-07T07:39:11.726Z,7952
2017-05-07T07:40:20.620Z,7912
2017-05-07T07:41:30.159Z,7824
2017-05-07T07:42:39.053Z,7692
2017-05-07T07:43:48.247Z,7596
2017-05-07T07:44:57.798Z,7532
2017-05-07T07:46:06.696Z,7532
2017-05-07T07:47:15.593Z,7476
2017-05-07T07:48:24.492Z,7404
2017-05-07T07:49:33.383Z,7400
2017-05-07T07:50:42.279Z,7444
2017-05-07T07:51:51.171Z,7396
2017-05-07T07:53:00.387Z,7400
2017-05-07T07:54:09.614Z,7396
2017-05-07T07:55:18.884Z,7332
2017-05-07T07:56:27.775Z,7276
2017-05-07T07:57:36.997Z,7068
2017-05-07T07:58:46.219Z,6980
2017-05-07T07:59:55.118Z,7080
2017-05-07T08:01:04.166Z,7080
2017-05-07T08:02:13.712Z,7160
2017-05-07T08:03:22.610Z,7212
2017-05-07T08:04:31.836Z,7140
2017-05-07T08:05:40.819Z,7048
2017-05-07T08:06:50.511Z,6896
2017-05-07T08:07:59.409Z,6800
2017-05-07T08:09:08.305Z,6776
2017-05-07T08:10:17.521Z,6704
2017-05-07T08:11:26.737Z,6596
2017-05-07T08:12:35.644Z,6464
2017-05-07T08:13:44.861Z,6400
2017-05-07T08:14:54.404Z,6380
2017-05-07T08:16:03.303Z,6328
2017-05-07T08:17:12.519Z,6196
2017-05-07T08:18:21.513Z,6120
2017-05-07T08:19:30.406Z,6156
2017-05-07T08:20:39.306Z,6152
2017-05-07T08:21:48.589Z,6140
2017-05-07T08:22:57.516Z,6160
2017-05-07T08:24:06.743Z,6184
2017-05-07T08:25:15.643Z,6268
2017-05-07T08:26:24.865Z,6392
2017-05-07T08:27:33.758Z,6504
2017-05-07T08:28:42.655Z,6620
2017-05-07T08:29:51.850Z,6748
2017-05-07T08:31:00.747Z,6868
2017-05-07T08:32:09.990Z,7012
2017-05-07T08:33:19.535Z,7220
2017-05-07T08:34:28.759Z,7408
2017-05-07T08:35:37.661Z,7524
2017-05-07T08:36:46.876Z,7580
2017-05-07T08:37:56.094Z,7684
2017-05-07T08:39:05.314Z,7764
2017-05-07T08:40:14.561Z,7824
2017-05-07T08:41:23.457Z,7872
2017-05-07T08:42:33.322Z,7844
2017-05-07T08:43:42.219Z,7676
2017-05-07T08:44:51.444Z,7488
2017-05-07T08:46:00.662Z,7348
2017-05-07T08:47:09.558Z,7340
2017-05-07T08:48:18.783Z,7344
2017-05-07T08:49:27.676Z,7284
2017-05-07T08:50:36.578Z,7312
2017-05-07T08:51:45.476Z,7292
2017-05-07T08:52:54.699Z,7212
2017-05-07T08:54:03.599Z,7208
2017-05-07T08:55:12.498Z,7220
2017-05-07T08:56:21.717Z,7228
2017-05-07T08:57:30.618Z,7228
2017-05-07T08:58:39.511Z,7208
2017-05-07T08:59:48.409Z,7184
2017-05-07T09:00:57.487Z,7204
2017-05-07T09:02:06.381Z,7256
2017-05-07T09:03:15.928Z,7284
2017-05-07T09:04:24.824Z,7220
2017-05-07T09:05:34.084Z,7120
2017-05-07T09:06:43.300Z,7236
2017-05-07T09:07:52.197Z,7328
2017-05-07T09:09:01.100Z,7452
2017-05-07T09:10:10.329Z,7476
2017-05-07T09:11:19.879Z,7464
2017-05-07T09:12:29.103Z,7504
2017-05-07T09:13:38.001Z,7788
2017-05-07T09:14:46.900Z,7888
2017-05-07T09:15:56.444Z,7920
2017-05-07T09:17:05.670Z,8020
2017-05-07T09:18:14.566Z,8020
2017-05-07T09:19:23.454Z,7992
2017-05-07T09:20:33.034Z,7980
2017-05-07T09:21:42.578Z,8060
2017-05-07T09:22:51.797Z,8140
2017-05-07T09:24:00.693Z,8228
2017-05-07T09:25:10.250Z,8192
2017-05-07T09:26:19.146Z,8240
2017-05-07T09:27:28.692Z,8256
2017-05-07T09:28:37.586Z,8336
2017-05-07T09:29:46.480Z,8356
2017-05-07T09:30:55.378Z,8428
2017-05-07T09:32:04.765Z,8720
2017-05-07T09:33:13.985Z,9140
2017-05-07T09:34:22.915Z,9456
2017-05-07T09:35:31.812Z,9832
2017-05-07T09:36:40.708Z,10076
2017-05-07T09:37:49.982Z,10144
2017-05-07T09:38:59.197Z,10244
2017-05-07T09:40:08.097Z,10384
2017-05-07T09:41:16.993Z,10100
2017-05-07T09:42:25.885Z,9484
2017-05-07T09:43:35.207Z,9500
2017-05-07T09:44:44.427Z,9964
2017-05-07T09:45:53.326Z,10496
2017-05-07T09:47:02.551Z,10884
2017-05-07T09:48:11.446Z,10968
2017-05-07T09:49:20.966Z,11364
2017-05-07T09:50:30.187Z,11464
2017-05-07T09:51:39.082Z,11392
2017-05-07T09:52:48.303Z,11872
2017-05-07T09:53:57.527Z,12544
2017-05-07T09:55:06.851Z,13292
2017-05-07T09:56:16.402Z,13276
2017-05-07T09:57:25.633Z,12560
2017-05-07T09:58:34.889Z,11684
2017-05-07T09:59:43.793Z,11152
2017-05-07T10:00:53.441Z,11000
2017-05-07T10:02:02.334Z,10808
2017-05-07T10:03:11.561Z,10576
2017-05-07T10:04:20.783Z,10388
2017-05-07T10:05:29.680Z,10452
2017-05-07T10:06:38.878Z,10496
2017-05-07T10:07:48.427Z,10740
2017-05-07T10:08:57.324Z,10712
2017-05-07T10:10:06.548Z,10496
2017-05-07T10:11:15.450Z,9992
2017-05-07T10:12:24.498Z,9832
2017-05-07T10:13:33.396Z,9740
2017-05-07T10:14:42.290Z,9776
2017-05-07T10:15:51.191Z,9872
2017-05-07T10:17:00.088Z,9740
2017-05-07T10:18:08.985Z,9600
2017-05-07T10:19:17.880Z,9552
2017-05-07T10:20:26.780Z,9452
2017-05-07T10:21:35.999Z,9364
2017-05-07T10:22:45.551Z,9480
2017-05-07T10:23:54.927Z,9872
2017-05-07T10:25:04.475Z,10004
2017-05-07T10:26:13.377Z,10156
2017-05-07T10:27:22.598Z,10156
2017-05-07T10:28:31.556Z,10032
2017-05-07T10:29:40.855Z,10012
2017-05-07T10:30:50.095Z,10168
2017-05-07T10:31:59.322Z,10540
2017-05-07T10:33:08.545Z,10908
2017-05-07T10:34:17.438Z,11364
2017-05-07T10:35:26.861Z,11988
2017-05-07T10:36:35.759Z,12168
2017-05-07T10:37:45.309Z,12092
2017-05-07T10:38:54.587Z,12316
2017-05-07T10:40:03.810Z,12528
2017-05-07T10:41:13.429Z,12488
2017-05-07T10:42:22.327Z,12116
2017-05-07T10:43:31.564Z,11472
2017-05-07T10:44:41.111Z,11224
2017-05-07T10:45:50.009Z,10896
2017-05-07T10:46:58.956Z,11068
2017-05-07T10:48:08.185Z,11924
2017-05-07T10:49:17.730Z,12592
2017-05-07T10:50:26.629Z,13420
2017-05-07T10:51:36.176Z,14088
2017-05-07T10:52:45.257Z,14556
2017-05-07T10:53:54.157Z,14360
2017-05-07T10:55:03.709Z,14884
2017-05-07T10:56:12.932Z,15716
2017-05-07T10:57:22.805Z,15868
2017-05-07T10:58:31.860Z,15108
2017-05-07T10:59:40.764Z,15360
2017-05-07T11:00:49.994Z,16044
2017-05-07T11:01:58.894Z,15840
2017-05-07T11:03:08.127Z,14704
2017-05-07T11:04:17.531Z,13972
2017-05-07T11:05:26.457Z,14500
2017-05-07T11:06:35.682Z,14808
2017-05-07T11:07:44.582Z,15920
2017-05-07T11:08:53.803Z,16612
2017-05-07T11:10:03.130Z,17280
2017-05-07T11:11:12.029Z,17600
2017-05-07T11:12:20.924Z,17728
2017-05-07T11:13:30.152Z,19456
2017-05-07T11:14:39.083Z,21440
2017-05-07T11:15:48.134Z,22528
2017-05-07T11:16:57.031Z,22464
2017-05-07T11:18:05.927Z,21696
2017-05-07T11:19:14.845Z,21216
2017-05-07T11:20:23.740Z,20416
2017-05-07T11:21:33.009Z,19040
2017-05-07T11:22:41.908Z,18336
2017-05-07T11:23:51.134Z,18272
2017-05-07T11:25:00.417Z,17600
2017-05-07T11:26:09.643Z,16864
2017-05-07T11:27:18.691Z,16116
2017-05-07T11:28:27.916Z,16704
2017-05-07T11:29:36.824Z,17472
2017-05-07T11:30:45.746Z,17248
2017-05-07T11:31:54.989Z,16960
2017-05-07T11:33:04.040Z,18848
2017-05-07T11:34:13.263Z,20576
2017-05-07T11:35:22.489Z,19328
2017-05-07T11:36:31.403Z,17728
2017-05-07T11:37:40.301Z,15824
2017-05-07T11:38:49.601Z,16368
2017-05-07T11:39:58.496Z,18560
2017-05-07T11:41:07.727Z,19136
2017-05-07T11:42:16.625Z,18720
2017-05-07T11:43:25.519Z,17504
2017-05-07T11:44:34.470Z,16196
2017-05-07T11:45:43.371Z,16560
2017-05-07T11:46:52.268Z,17888
2017-05-07T11:48:01.163Z,19552
2017-05-07T11:49:10.387Z,20768
2017-05-07T11:50:19.287Z,21440
2017-05-07T11:51:28.185Z,23072
2017-05-07T11:52:37.412Z,38080
2017-05-07T11:53:46.316Z,19840
2017-05-07T11:54:55.542Z,58912
2017-05-07T11:56:04.493Z,39648
2017-05-07T11:57:13.718Z,16396
2017-05-07T11:58:22.941Z,20480
2017-05-07T11:59:32.171Z,40736
2017-05-07T12:00:41.721Z,72096
2017-05-07T12:01:50.976Z,67488
2017-05-07T12:03:00.531Z,70080
2017-05-07T12:04:09.756Z,68096
2017-05-07T12:05:18.981Z,66496
2017-05-07T12:06:27.879Z,68640
2017-05-07T12:07:37.030Z,68608
2017-05-07T12:08:46.581Z,29312
2017-05-07T12:09:55.808Z,41408
2017-05-07T12:11:05.370Z,27168
2017-05-07T12:12:14.274Z,29088
2017-05-07T12:13:23.866Z,58272
2017-05-07T12:14:33.096Z,63360
2017-05-07T12:15:42.325Z,71072
2017-05-07T12:16:51.555Z,71200
2017-05-07T12:18:00.492Z,68256
2017-05-07T12:19:10.006Z,61120
2017-05-07T12:20:18.910Z,63360
2017-05-07T12:21:27.839Z,67936
2017-05-07T12:22:36.746Z,63616
2017-05-07T12:23:45.662Z,65088
2017-05-07T12:24:55.058Z,62528
2017-05-07T12:26:04.287Z,62880
2017-05-07T12:27:13.190Z,65056
2017-05-07T12:28:22.427Z,59872
2017-05-07T12:29:31.654Z,61280
2017-05-07T12:30:41.036Z,66656
2017-05-07T12:31:50.261Z,67776
2017-05-07T12:32:59.820Z,75552
2017-05-07T12:34:08.761Z,82944
2017-05-07T12:35:18.004Z,85056
2017-05-07T12:36:27.459Z,81408
2017-05-07T12:37:36.371Z,81408
2017-05-07T12:38:45.605Z,82528
2017-05-07T12:39:54.523Z,84352
2017-05-07T12:41:03.456Z,85760
2017-05-07T12:42:12.435Z,93664
2017-05-07T12:43:22.003Z,89440
2017-05-07T12:44:30.934Z,64224
2017-05-07T12:45:39.854Z,70944
2017-05-07T12:46:49.090Z,45888
2017-05-07T12:47:58.099Z,54688
2017-05-07T12:49:07.012Z,26880
2017-05-07T12:50:15.947Z,20544
2017-05-07T12:51:24.916Z,20576
2017-05-07T12:52:33.885Z,40576
2017-05-07T12:53:43.385Z,43744
2017-05-07T12:54:52.325Z,49984
2017-05-07T12:56:01.264Z,57568
2017-05-07T12:57:10.170Z,23200
2017-05-07T12:58:19.072Z,30336
2017-05-07T12:59:28.229Z,55872
2017-05-07T13:00:37.163Z,62080
2017-05-07T13:01:46.391Z,58688
2017-05-07T13:02:55.627Z,17504
2017-05-07T13:04:04.532Z,66400
2017-05-07T13:05:14.151Z,27296
2017-05-07T13:06:23.058Z,62976
2017-05-07T13:07:31.964Z,27712
2017-05-07T13:08:40.877Z,20928
2017-05-07T13:09:50.111Z,36544
2017-05-07T13:10:59.067Z,22944
2017-05-07T13:12:07.973Z,19808
2017-05-07T13:13:16.882Z,22464
2017-05-07T13:14:26.441Z,64960
2017-05-07T13:15:35.680Z,61792
2017-05-07T13:16:44.637Z,60512
2017-05-07T13:17:53.543Z,73856
2017-05-07T13:19:02.451Z,75872
2017-05-07T13:20:12.007Z,72768
2017-05-07T13:21:20.914Z,80864
2017-05-07T13:22:30.153Z,83392
2017-05-07T13:23:39.063Z,79488
2017-05-07T13:24:47.968Z,82208
2017-05-07T13:25:57.199Z,83968
2017-05-07T13:27:06.113Z,85088
2017-05-07T13:28:15.175Z,79008
2017-05-07T13:29:24.407Z,75488
2017-05-07T13:30:33.638Z,77696
2017-05-07T13:31:42.546Z,84736
2017-05-07T13:32:52.112Z,88736
2017-05-07T13:34:01.171Z,89856
2017-05-07T13:35:10.085Z,81184
2017-05-07T13:36:18.993Z,87104
2017-05-07T13:37:28.229Z,88960
2017-05-07T13:38:37.466Z,86432
2017-05-07T13:39:47.073Z,86016
2017-05-07T13:40:55.986Z,91808
2017-05-07T13:42:04.906Z,87744
2017-05-07T13:43:14.143Z,84320
2017-05-07T13:44:23.701Z,82464
2017-05-07T13:45:33.190Z,87232
2017-05-07T13:46:42.432Z,31296
2017-05-07T13:47:51.666Z,88896
2017-05-07T13:49:00.603Z,85152
2017-05-07T13:50:09.515Z,76736
2017-05-07T13:51:18.429Z,78656
2017-05-07T13:52:27.347Z,76832
2017-05-07T13:53:36.589Z,75552
2017-05-07T13:54:46.151Z,80480
2017-05-07T13:55:55.388Z,82400
2017-05-07T13:57:04.781Z,83904
2017-05-07T13:58:14.025Z,81728
2017-05-07T13:59:22.935Z,85216
2017-05-07T14:00:32.174Z,84352
2017-05-07T14:01:41.090Z,85792
2017-05-07T14:02:50.102Z,83360
2017-05-07T14:03:59.026Z,81344
2017-05-07T14:05:07.963Z,82208
2017-05-07T14:06:16.874Z,82112
2017-05-07T14:07:25.810Z,81824
2017-05-07T14:08:35.143Z,79776
2017-05-07T14:09:44.386Z,80448
2017-05-07T14:10:53.657Z,81440
2017-05-07T14:12:02.898Z,85216
2017-05-07T14:13:12.139Z,86112
2017-05-07T14:14:21.103Z,81568
2017-05-07T14:15:30.383Z,81248
2017-05-07T14:16:39.314Z,84064
2017-05-07T14:17:48.556Z,88992
2017-05-07T14:18:57.474Z,87712
2017-05-07T14:20:07.189Z,88192
2017-05-07T14:21:16.099Z,89312
2017-05-07T14:22:25.336Z,85408
2017-05-07T14:23:34.255Z,86528
2017-05-07T14:24:43.177Z,82240
2017-05-07T14:25:52.151Z,74688
2017-05-07T14:27:01.390Z,71552
2017-05-07T14:28:10.632Z,70464
2017-05-07T14:29:19.544Z,64864
2017-05-07T14:30:28.790Z,67456
2017-05-07T14:31:38.032Z,62304
2017-05-07T14:32:47.592Z,58912
2017-05-07T14:33:56.832Z,61280
2017-05-07T14:35:06.079Z,56928
2017-05-07T14:36:15.978Z,57216
2017-05-07T14:37:25.269Z,53376
2017-05-07T14:38:34.182Z,66624
2017-05-07T14:39:43.422Z,69920
2017-05-07T14:40:52.337Z,73792
2017-05-07T14:42:01.250Z,77600
2017-05-07T14:43:10.163Z,71264
2017-05-07T14:44:19.721Z,81088
2017-05-07T14:45:28.630Z,83328
2017-05-07T14:46:37.541Z,88256
2017-05-07T14:47:46.776Z,88544
2017-05-07T14:48:56.016Z,87488
2017-05-07T14:50:04.925Z,89824
2017-05-07T14:51:13.836Z,86432
2017-05-07T14:52:22.759Z,86976
2017-05-07T14:53:31.677Z,89408
2017-05-07T14:54:40.896Z,89184
2017-05-07T14:55:49.835Z,81376
2017-05-07T14:56:59.405Z,72128
2017-05-07T14:58:08.333Z,77984
2017-05-07T14:59:17.247Z,82016
2017-05-07T15:00:26.212Z,88448
2017-05-07T15:01:35.125Z,79552
2017-05-07T15:02:44.042Z,76544
2017-05-07T15:03:53.618Z,89088
2017-05-07T15:05:02.542Z,85472
2017-05-07T15:06:11.936Z,83040
2017-05-07T15:07:20.862Z,81760
2017-05-07T15:08:30.110Z,80128
2017-05-07T15:09:39.351Z,78240
2017-05-07T15:10:48.297Z,83424
2017-05-07T15:11:57.717Z,85184
2017-05-07T15:13:06.958Z,86848
2017-05-07T15:14:16.523Z,66048
2017-05-07T15:15:25.442Z,51424
2017-05-07T15:16:34.681Z,63904
2017-05-07T15:17:43.698Z,68608
2017-05-07T15:18:52.621Z,69376
2017-05-07T15:20:01.533Z,76384
2017-05-07T15:21:10.451Z,84672
2017-05-07T15:22:19.366Z,87168
2017-05-07T15:23:28.433Z,89760
2017-05-07T15:24:37.342Z,87104
2017-05-07T15:25:46.256Z,93216
2017-05-07T15:26:55.494Z,89888
2017-05-07T15:28:04.410Z,88864
2017-05-07T15:29:13.386Z,91680
2017-05-07T15:30:22.306Z,95200
2017-05-07T15:31:31.260Z,86176
2017-05-07T15:32:40.497Z,81632